Time;durP1;ratioP1;P1;durP2;ratioP2;P2;SDS_P1;SDS_P2;PMS_P1;PMS_P2;Temp;Humidity;BMP_temperature;BMP_pressure;BME280_temperature;BME280_humidity;BME280_pressure;Samples;Min_cycle;Max_cycle;Signal;HPM_P1;HPM_P2
2021/12/07 05:01:11;;;;;;;4.23;2.17;;;3.20;99.70;;;;;;5124491;22;20369;-63
2021/12/07 05:03:40;;;;;;;3.73;2.20;;;3.20;99.70;;;;;;5071679;28;20200;-63
2021/12/07 05:06:08;;;;;;;4.10;2.30;;;3.20;99.70;;;;;;5072745;28;20941;-62
2021/12/07 05:08:40;;;;;;;4.70;2.20;;;3.20;99.70;;;;;;5073759;28;20442;-63
2021/12/07 05:11:33;;;;;;;3.20;1.80;;;3.10;99.70;;;;;;5073226;28;20463;-64
2021/12/07 05:14:15;;;;;;;6.07;2.40;;;3.10;99.70;;;;;;5072989;28;20526;-63
2021/12/07 05:16:56;;;;;;;4.90;2.20;;;3.10;99.70;;;;;;5072306;28;20449;-63
2021/12/07 05:25:05;;;;;;;5.03;2.80;;;3.30;99.70;;;;;;5072382;28;20453;-63
2021/12/07 05:38:32;;;;;;;3.60;1.90;;;3.20;99.70;;;;;;5072786;28;20467;-62
2021/12/07 05:40:59;;;;;;;3.47;2.10;;;3.30;99.70;;;;;;5072270;28;20463;-63
2021/12/07 05:43:26;;;;;;;3.03;1.87;;;3.30;99.70;;;;;;5071420;28;20482;-60
2021/12/07 05:45:52;;;;;;;4.50;1.93;;;3.30;99.70;;;;;;5067891;28;20492;-63
2021/12/07 05:48:20;;;;;;;3.00;1.90;;;3.30;99.70;;;;;;5061722;28;20458;-62
2021/12/07 05:50:47;;;;;;;3.80;2.10;;;3.40;99.70;;;;;;5065670;28;21001;-62
2021/12/07 05:53:14;;;;;;;4.50;2.20;;;3.30;99.70;;;;;;5071764;28;20450;-64
2021/12/07 05:55:41;;;;;;;4.93;2.13;;;3.10;99.70;;;;;;5071580;28;20446;-62
2021/12/07 05:58:08;;;;;;;3.60;1.83;;;3.10;99.70;;;;;;5063438;28;20454;-63
2021/12/07 06:00:37;;;;;;;3.60;2.00;;;3.10;99.70;;;;;;5063563;28;21028;-63
2021/12/07 06:03:05;;;;;;;5.67;2.73;;;3.10;99.70;;;;;;5057956;28;20478;-63
2021/12/07 06:05:35;;;;;;;4.67;2.03;;;3.10;99.70;;;;;;5059281;28;20439;-62
2021/12/07 06:08:01;;;;;;;3.40;1.83;;;3.10;99.70;;;;;;5067089;28;20455;-61
2021/12/07 06:10:29;;;;;;;4.07;1.83;;;3.10;99.70;;;;;;5059886;28;20478;-62
2021/12/07 06:12:56;;;;;;;4.10;2.00;;;3.10;99.70;;;;;;5069054;28;20949;-63
2021/12/07 06:15:24;;;;;;;3.80;1.90;;;3.00;99.70;;;;;;5062239;28;20517;-65
2021/12/07 06:17:52;;;;;;;3.37;1.90;;;3.00;99.70;;;;;;5061538;28;20950;-65
2021/12/07 06:20:20;;;;;;;5.20;2.10;;;3.00;99.70;;;;;;5061061;28;20788;-64
2021/12/07 06:22:48;;;;;;;4.60;2.30;;;3.10;99.70;;;;;;5057667;28;20482;-65
2021/12/07 06:25:15;;;;;;;8.57;2.20;;;3.00;99.70;;;;;;5065240;28;20438;-65
2021/12/07 06:27:44;;;;;;;6.63;2.37;;;3.00;99.70;;;;;;5069558;28;20451;-65
2021/12/07 06:30:12;;;;;;;4.17;2.53;;;3.00;99.70;;;;;;5070187;28;20815;-64
2021/12/07 06:32:39;;;;;;;4.80;2.50;;;3.10;99.70;;;;;;5071144;28;20443;-64
2021/12/07 06:35:08;;;;;;;7.23;3.37;;;3.10;99.70;;;;;;5070822;28;20962;-65
2021/12/07 06:37:36;;;;;;;9.43;3.40;;;2.90;99.70;;;;;;5071361;28;20501;-65
2021/12/07 06:40:05;;;;;;;7.10;3.77;;;2.90;99.70;;;;;;5070728;28;20474;-64
2021/12/07 06:42:31;;;;;;;5.97;2.80;;;2.80;99.70;;;;;;5069535;28;20483;-63
2021/12/07 06:44:59;;;;;;;4.30;2.40;;;2.80;99.70;;;;;;5070994;28;20803;-63
2021/12/07 06:47:25;;;;;;;5.10;2.40;;;2.80;99.70;;;;;;5071010;28;20454;-64
2021/12/07 06:49:52;;;;;;;3.70;2.40;;;2.90;99.70;;;;;;5071187;28;20486;-64
2021/12/07 06:52:19;;;;;;;4.63;2.33;;;2.90;99.70;;;;;;5071264;28;20442;-64
2021/12/07 06:54:45;;;;;;;4.50;2.87;;;3.00;99.70;;;;;;5070896;28;20447;-64
2021/12/07 06:57:13;;;;;;;4.50;2.60;;;3.00;99.70;;;;;;5071186;28;20454;-63
2021/12/07 06:59:40;;;;;;;5.03;2.63;;;2.80;99.70;;;;;;5070948;28;20462;-64
2021/12/07 07:02:07;;;;;;;4.80;2.53;;;2.90;99.70;;;;;;5066443;28;20474;-64
2021/12/07 07:04:33;;;;;;;5.73;2.87;;;2.80;99.70;;;;;;5062181;28;20447;-63
2021/12/07 07:07:00;;;;;;;6.60;3.20;;;2.90;99.70;;;;;;5070736;28;20442;-64
2021/12/07 07:09:27;;;;;;;7.53;2.90;;;3.00;99.70;;;;;;5050789;28;20455;-63
2021/12/07 07:11:54;;;;;;;5.70;3.10;;;3.00;99.70;;;;;;5050696;28;20448;-64
2021/12/07 07:14:23;;;;;;;6.73;3.13;;;3.20;99.70;;;;;;5051348;28;20963;-60
2021/12/07 07:16:49;;;;;;;7.30;3.07;;;3.30;99.70;;;;;;5064664;28;20439;-64
2021/12/07 07:19:16;;;;;;;7.00;3.40;;;3.20;99.70;;;;;;5068756;28;20443;-64
2021/12/07 07:21:43;;;;;;;5.60;3.13;;;3.30;99.70;;;;;;5050455;28;20783;-64
2021/12/07 07:24:09;;;;;;;6.53;3.07;;;3.30;99.70;;;;;;5050734;28;20451;-64
2021/12/07 07:26:36;;;;;;;5.97;2.57;;;3.30;99.70;;;;;;5051943;28;20451;-64
2021/12/07 07:29:04;;;;;;;10.00;3.07;;;3.40;99.70;;;;;;5054808;28;20820;-65
2021/12/07 07:31:32;;;;;;;5.00;2.40;;;3.50;99.70;;;;;;5056648;28;20468;-64
2021/12/07 07:33:58;;;;;;;10.47;2.67;;;3.70;99.70;;;;;;5074519;28;20443;-64
2021/12/07 07:36:25;;;;;;;6.00;2.53;;;3.70;99.70;;;;;;5074227;28;20435;-63
2021/12/07 07:38:52;;;;;;;4.93;2.50;;;3.50;99.70;;;;;;5074547;28;20443;-63
2021/12/07 07:41:19;;;;;;;5.47;2.60;;;3.40;99.70;;;;;;5073895;28;20462;-63
2021/12/07 07:43:45;;;;;;;8.57;2.80;;;3.30;99.70;;;;;;5074276;28;20478;-64
2021/12/07 07:46:12;;;;;;;10.90;3.40;;;3.30;99.70;;;;;;5074027;28;20633;-64
2021/12/07 07:48:40;;;;;;;5.80;3.00;;;3.20;99.70;;;;;;5074149;28;20445;-64
2021/12/07 07:51:09;;;;;;;12.07;4.20;;;3.10;99.70;;;;;;5074873;28;20474;-64
2021/12/07 07:53:36;;;;;;;8.97;3.87;;;3.00;99.70;;;;;;5073694;28;20439;-62
2021/12/07 07:56:03;;;;;;;7.30;3.50;;;3.00;99.70;;;;;;5071075;28;20892;-64
2021/12/07 07:58:30;;;;;;;9.97;3.10;;;2.90;99.70;;;;;;5066217;28;20443;-64
2021/12/07 08:00:57;;;;;;;9.33;3.47;;;3.00;99.70;;;;;;5053914;28;20482;-64
2021/12/07 08:03:25;;;;;;;9.33;3.53;;;3.10;99.70;;;;;;5067828;28;21090;-63
2021/12/07 08:05:53;;;;;;;9.03;3.70;;;3.10;99.70;;;;;;5073726;28;20461;-64
2021/12/07 08:08:20;;;;;;;10.60;3.90;;;3.00;99.70;;;;;;5073878;28;20454;-63
2021/12/07 08:10:47;;;;;;;7.07;3.10;;;3.00;99.70;;;;;;5073941;28;20554;-64
2021/12/07 08:13:14;;;;;;;8.50;3.27;;;3.00;99.70;;;;;;5073600;28;20443;-64
2021/12/07 08:15:44;;;;;;;6.13;2.80;;;3.20;99.70;;;;;;5057993;28;20444;-64
2021/12/07 08:18:11;;;;;;;6.50;3.10;;;3.30;99.70;;;;;;5052841;28;20487;-64
2021/12/07 08:20:38;;;;;;;6.57;3.20;;;3.30;99.70;;;;;;5053668;28;20467;-64
2021/12/07 08:23:07;;;;;;;9.43;3.10;;;3.30;99.70;;;;;;5053458;28;21001;-64
2021/12/07 08:25:37;;;;;;;8.80;3.00;;;3.40;99.70;;;;;;5053242;28;20448;-64
2021/12/07 08:28:04;;;;;;;5.57;3.13;;;3.50;99.70;;;;;;5053482;28;20451;-64
2021/12/07 08:30:31;;;;;;;7.67;3.23;;;3.50;99.70;;;;;;5053534;28;20470;-64
2021/12/07 08:32:58;;;;;;;8.13;3.17;;;3.70;99.70;;;;;;5053406;28;20570;-64
2021/12/07 08:35:24;;;;;;;6.13;3.57;;;3.70;99.70;;;;;;5053116;28;20435;-64
2021/12/07 08:37:52;;;;;;;10.83;3.00;;;3.70;99.70;;;;;;5052037;28;20471;-65
2021/12/07 08:40:22;;;;;;;7.90;2.80;;;3.70;99.70;;;;;;5053271;28;20832;-64
2021/12/07 08:42:50;;;;;;;5.90;3.10;;;3.70;99.70;;;;;;5053171;28;20476;-64
2021/12/07 08:45:17;;;;;;;6.70;3.20;;;3.70;99.70;;;;;;5052749;28;20517;-63
2021/12/07 08:47:45;;;;;;;8.97;4.03;;;3.70;99.70;;;;;;5053025;28;20447;-64
2021/12/07 08:50:14;;;;;;;10.97;3.87;;;3.60;99.70;;;;;;5053037;28;20468;-64
2021/12/07 08:52:40;;;;;;;9.87;3.57;;;3.70;99.70;;;;;;5071675;28;20485;-64
2021/12/07 09:00:39;;;;;;;7.20;3.23;;;4.00;99.70;;;;;;5055181;28;20861;-63
2021/12/07 09:03:05;;;;;;;7.67;3.40;;;4.10;99.70;;;;;;5052783;28;20490;-64
2021/12/07 09:05:32;;;;;;;8.67;3.30;;;4.10;99.70;;;;;;5052549;28;20501;-64
2021/12/07 09:07:59;;;;;;;7.40;3.73;;;4.20;99.70;;;;;;5052896;28;20447;-64
2021/12/07 09:10:25;;;;;;;9.77;3.90;;;4.30;99.70;;;;;;5052674;28;20459;-64
2021/12/07 09:12:53;;;;;;;10.07;4.40;;;4.40;99.70;;;;;;5058872;28;20454;-64
2021/12/07 09:15:20;;;;;;;7.50;3.90;;;4.30;99.70;;;;;;5072349;28;20450;-65
2021/12/07 09:17:47;;;;;;;7.40;3.30;;;4.40;99.70;;;;;;5068736;28;20464;-64
2021/12/07 09:20:16;;;;;;;8.10;2.73;;;4.40;99.70;;;;;;5072643;28;20488;-64
2021/12/07 09:22:44;;;;;;;9.40;3.10;;;4.40;99.70;;;;;;5072532;28;20569;-64
2021/12/07 09:25:11;;;;;;;7.33;3.20;;;4.60;99.70;;;;;;5071815;28;20450;-64
2021/12/07 09:27:37;;;;;;;7.07;2.90;;;4.60;99.70;;;;;;5072146;28;20442;-64
2021/12/07 09:30:08;;;;;;;6.93;3.80;;;4.50;99.70;;;;;;5066644;28;20466;-64
2021/12/07 09:32:35;;;;;;;9.27;3.30;;;4.60;99.70;;;;;;5053005;28;21123;-64
2021/12/07 09:35:02;;;;;;;7.77;3.23;;;4.70;99.70;;;;;;5051817;28;20440;-64
2021/12/07 09:37:29;;;;;;;8.47;3.53;;;4.50;99.70;;;;;;5052328;28;20494;-64
2021/12/07 09:39:55;;;;;;;6.23;3.80;;;4.60;99.70;;;;;;5052001;28;20463;-65
2021/12/07 09:42:22;;;;;;;9.20;3.77;;;4.60;99.70;;;;;;5052211;28;20443;-65
2021/12/07 09:44:49;;;;;;;9.40;3.50;;;4.60;99.70;;;;;;5051690;28;21060;-64
2021/12/07 09:47:17;;;;;;;6.53;3.00;;;4.80;99.70;;;;;;5052209;28;20799;-64
2021/12/07 09:49:44;;;;;;;7.30;3.10;;;4.90;99.70;;;;;;5051473;28;20515;-64
2021/12/07 09:52:10;;;;;;;7.67;3.00;;;4.90;99.70;;;;;;5051292;28;20451;-64
2021/12/07 09:54:37;;;;;;;8.53;3.20;;;4.90;99.70;;;;;;5052753;28;20455;-64
2021/12/07 09:57:05;;;;;;;9.47;2.63;;;5.20;99.70;;;;;;5051922;28;21142;-65
2021/12/07 09:59:32;;;;;;;7.30;2.70;;;5.30;99.70;;;;;;5051613;28;20452;-64
2021/12/07 10:01:59;;;;;;;7.33;2.40;;;5.40;99.70;;;;;;5051625;28;20443;-64
2021/12/07 10:04:28;;;;;;;5.10;2.47;;;5.40;99.70;;;;;;5051469;28;20479;-64
2021/12/07 10:06:55;;;;;;;6.10;2.40;;;5.40;99.70;;;;;;5051661;28;20448;-64
2021/12/07 10:09:22;;;;;;;7.70;2.67;;;5.50;99.70;;;;;;5051548;28;20447;-64
2021/12/07 10:11:51;;;;;;;5.60;2.60;;;5.60;99.70;;;;;;5051498;28;20879;-65
2021/12/07 10:14:18;;;;;;;6.40;2.60;;;5.70;99.70;;;;;;5051452;28;20899;-64
2021/12/07 10:16:46;;;;;;;7.90;2.60;;;5.80;99.70;;;;;;5050644;28;20830;-64
2021/12/07 10:19:15;;;;;;;5.60;2.40;;;5.80;99.70;;;;;;5051480;28;20493;-65
2021/12/07 10:21:44;;;;;;;5.93;2.13;;;5.80;99.70;;;;;;5051337;28;21563;-65
2021/12/07 10:24:17;;;;;;;10.13;2.30;;;5.80;99.70;;;;;;5051175;28;20514;-65
2021/12/07 10:26:44;;;;;;;6.00;2.30;;;5.60;99.70;;;;;;5051126;28;20959;-65
2021/12/07 10:29:15;;;;;;;5.10;2.20;;;5.60;99.70;;;;;;5066033;28;20453;-65
2021/12/07 10:31:44;;;;;;;6.63;2.43;;;5.50;99.70;;;;;;5092408;28;20528;-64
2021/12/07 10:34:14;;;;;;;6.87;2.47;;;5.40;99.70;;;;;;5092026;28;20820;-64
2021/12/07 10:36:44;;;;;;;5.40;2.50;;;5.50;99.70;;;;;;5091328;28;20485;-64
2021/12/07 10:39:13;;;;;;;5.77;2.30;;;5.60;99.70;;;;;;5091553;28;20442;-64
2021/12/07 10:41:42;;;;;;;4.70;2.40;;;5.70;99.70;;;;;;5091337;28;21044;-65
2021/12/07 10:44:11;;;;;;;5.83;2.67;;;5.70;99.70;;;;;;5056191;28;20904;-65
2021/12/07 10:46:48;;;;;;;6.20;2.90;;;5.60;99.70;;;;;;5049850;28;20496;-65
2021/12/07 10:49:37;;;;;;;6.13;2.40;;;5.70;99.70;;;;;;5058491;28;20572;-65
2021/12/07 10:52:29;;;;;;;5.30;2.40;;;5.50;99.70;;;;;;5071406;28;20788;-64
2021/12/07 10:55:04;;;;;;;7.70;2.70;;;5.60;99.70;;;;;;5070902;28;21013;-63
2021/12/07 10:57:34;;;;;;;6.60;2.90;;;5.50;99.70;;;;;;5070440;28;20446;-64
2021/12/07 11:00:20;;;;;;;5.90;2.60;;;5.30;99.70;;;;;;5070640;28;20474;-61
2021/12/07 11:02:50;;;;;;;5.27;2.57;;;5.30;99.70;;;;;;5071370;28;20438;-60
2021/12/07 11:05:20;;;;;;;5.10;2.60;;;5.30;99.70;;;;;;5070797;28;20426;-60
2021/12/07 11:07:50;;;;;;;6.93;2.60;;;5.30;99.70;;;;;;5071434;28;20454;-57
2021/12/07 11:10:22;;;;;;;5.00;2.67;;;5.20;99.70;;;;;;5071259;28;20470;-61
2021/12/07 11:12:58;;;;;;;5.83;2.27;;;5.30;99.70;;;;;;5071352;28;20454;-59
2021/12/07 11:15:27;;;;;;;7.77;2.37;;;5.10;99.70;;;;;;5070675;28;20449;-62
2021/12/07 11:17:57;;;;;;;7.43;2.77;;;5.10;99.70;;;;;;5070459;28;20551;-60
2021/12/07 11:20:24;;;;;;;6.63;2.40;;;5.00;99.70;;;;;;5071169;28;20463;-61
2021/12/07 11:22:59;;;;;;;6.00;2.40;;;4.90;99.70;;;;;;5071302;28;20439;-60
2021/12/07 11:29:39;;;;;;;10.03;2.43;;;4.80;99.70;;;;;;5070671;28;20434;-57
2021/12/07 11:31:13;;;;;;;7.80;1.97;;;4.90;99.70;;;;;;5071068;28;20564;-60
2021/12/07 11:33:39;;;;;;;9.60;2.37;;;5.10;99.70;;;;;;5071223;28;20430;-62
2021/12/07 11:36:16;;;;;;;5.60;2.20;;;5.40;99.70;;;;;;5070767;28;20818;-60
2021/12/07 11:38:44;;;;;;;8.33;2.33;;;5.50;99.70;;;;;;5071042;28;20893;-57
2021/12/07 11:41:16;;;;;;;6.30;2.43;;;5.60;99.70;;;;;;5070548;28;20891;-59
2021/12/07 11:43:56;;;;;;;5.30;2.40;;;5.80;99.70;;;;;;5070880;28;20474;-60
2021/12/07 11:46:25;;;;;;;8.50;2.33;;;5.80;99.70;;;;;;5070667;28;21051;-60
2021/12/07 11:49:07;;;;;;;10.20;2.70;;;5.80;99.70;;;;;;5071410;28;20439;-57
2021/12/07 11:51:35;;;;;;;7.90;2.33;;;5.60;99.70;;;;;;5071480;28;20470;-57
2021/12/07 11:54:04;;;;;;;12.47;2.57;;;5.50;99.70;;;;;;5070528;28;20434;-56
2021/12/07 11:56:31;;;;;;;8.27;3.13;;;5.50;99.70;;;;;;5055839;28;20482;-62
2021/12/07 11:58:58;;;;;;;6.20;3.10;;;5.40;99.70;;;;;;5050231;28;20448;-60
2021/12/07 12:01:24;;;;;;;14.03;3.00;;;5.30;99.70;;;;;;5061750;28;20900;-59
2021/12/07 12:03:51;;;;;;;5.87;2.70;;;5.30;99.70;;;;;;5070884;28;20474;-61
2021/12/07 12:06:18;;;;;;;6.57;2.80;;;5.10;99.70;;;;;;5070669;28;20445;-56
2021/12/07 12:08:45;;;;;;;8.80;2.30;;;5.30;99.70;;;;;;5070725;28;20450;-59
2021/12/07 12:11:21;;;;;;;5.33;2.20;;;5.30;99.70;;;;;;5070593;28;20470;-62
2021/12/07 12:13:57;;;;;;;4.73;1.90;;;5.30;99.70;;;;;;5074190;28;20438;-61
2021/12/07 12:16:28;;;;;;;8.30;2.07;;;5.40;99.70;;;;;;5073641;28;20858;-66
2021/12/07 12:19:07;;;;;;;3.90;1.90;;;5.40;99.70;;;;;;5073091;28;20950;-60
2021/12/07 12:21:39;;;;;;;7.63;2.50;;;5.50;99.70;;;;;;5070555;28;20523;-61
2021/12/07 12:24:14;;;;;;;7.30;2.50;;;5.60;99.70;;;;;;5074443;28;20902;-57
2021/12/07 12:26:45;;;;;;;5.93;2.57;;;5.60;99.70;;;;;;5065187;28;20483;-61
2021/12/07 12:29:18;;;;;;;7.00;2.13;;;5.80;99.70;;;;;;5066080;28;20508;-56
2021/12/07 12:31:50;;;;;;;8.20;2.40;;;5.80;99.70;;;;;;5073992;28;20446;-60
2021/12/07 12:34:19;;;;;;;6.00;2.30;;;5.70;99.70;;;;;;5074217;28;20466;-59
2021/12/07 12:36:59;;;;;;;4.63;2.10;;;5.70;99.70;;;;;;5073270;28;20946;-63
2021/12/07 12:39:45;;;;;;;10.50;2.40;;;5.70;99.70;;;;;;5057555;28;20448;-60
2021/12/07 12:42:18;;;;;;;6.73;2.10;;;5.60;99.70;;;;;;5053594;28;20958;-60
2021/12/07 12:44:45;;;;;;;5.40;2.17;;;5.60;99.70;;;;;;5053437;28;20486;-60
2021/12/07 12:47:11;;;;;;;5.23;1.90;;;5.60;99.70;;;;;;5053628;28;20455;-58
2021/12/07 12:49:40;;;;;;;7.13;2.30;;;5.70;99.70;;;;;;5053513;28;21003;-60
2021/12/07 12:52:07;;;;;;;3.43;1.87;;;5.60;99.70;;;;;;5053538;28;20501;-59
2021/12/07 12:54:45;;;;;;;5.43;2.23;;;5.60;99.70;;;;;;5053190;28;20494;-63
2021/12/07 12:57:17;;;;;;;6.07;2.20;;;5.50;99.70;;;;;;5053461;28;20447;-60
2021/12/07 12:59:46;;;;;;;6.10;2.30;;;5.50;99.70;;;;;;5052966;28;20498;-62
2021/12/07 13:02:14;;;;;;;5.10;2.23;;;5.50;99.70;;;;;;5053752;28;20501;-59
2021/12/07 13:04:41;;;;;;;6.77;1.87;;;5.60;99.70;;;;;;5073209;28;21066;-59
2021/12/07 13:07:25;;;;;;;7.83;2.33;;;5.50;99.70;;;;;;5060095;28;20459;-61
2021/12/07 13:09:56;;;;;;;7.63;2.30;;;5.60;99.70;;;;;;5060947;28;20996;-60
2021/12/07 13:12:26;;;;;;;5.03;2.03;;;5.50;99.70;;;;;;5059150;28;20435;-59
2021/12/07 13:14:56;;;;;;;8.27;2.27;;;5.60;99.70;;;;;;5062498;28;20439;-61
2021/12/07 13:17:32;;;;;;;5.80;2.53;;;5.60;99.70;;;;;;5052700;28;20444;-58
2021/12/07 13:20:20;;;;;;;4.33;1.73;;;5.70;99.70;;;;;;5069934;28;20470;-61
2021/12/07 13:22:49;;;;;;;5.70;1.80;;;5.80;99.70;;;;;;5066153;28;20454;-61
2021/12/07 13:25:19;;;;;;;4.03;1.90;;;5.80;99.70;;;;;;5055885;28;20753;-60
2021/12/07 13:28:10;;;;;;;5.27;2.00;;;5.80;99.70;;;;;;5054977;28;20981;-62
2021/12/07 13:30:46;;;;;;;13.50;2.13;;;5.90;99.70;;;;;;5051026;28;20476;-62
2021/12/07 13:33:15;;;;;;;5.53;1.93;;;5.80;99.70;;;;;;5066205;28;20450;-62
2021/12/07 13:35:42;;;;;;;4.10;1.97;;;5.80;99.70;;;;;;5048669;28;20432;-61
2021/12/07 13:38:17;;;;;;;4.33;1.80;;;5.80;99.70;;;;;;5053288;28;20452;-62
2021/12/07 13:40:44;;;;;;;3.70;1.90;;;5.70;99.70;;;;;;5058379;28;20509;-60
2021/12/07 13:43:30;;;;;;;5.47;2.20;;;5.70;99.70;;;;;;5052908;28;20505;-61
2021/12/07 13:46:11;;;;;;;7.83;2.07;;;5.70;99.70;;;;;;5063212;28;21009;-61
2021/12/07 13:48:38;;;;;;;3.67;1.90;;;5.60;99.70;;;;;;5052375;28;20671;-62
2021/12/07 13:51:05;;;;;;;7.17;2.47;;;5.60;99.70;;;;;;5062579;28;20466;-60
2021/12/07 13:53:32;;;;;;;7.10;2.20;;;5.50;99.70;;;;;;5056355;28;20471;-63
2021/12/07 13:56:00;;;;;;;7.23;2.60;;;5.40;99.70;;;;;;5053088;28;20497;-60
2021/12/07 13:58:31;;;;;;;9.77;2.90;;;5.30;99.70;;;;;;5052249;28;20886;-60
2021/12/07 14:01:01;;;;;;;4.13;2.33;;;5.20;99.70;;;;;;5066760;28;20871;-63
2021/12/07 14:03:28;;;;;;;5.73;2.27;;;5.30;99.70;;;;;;5053263;28;20439;-60
2021/12/07 14:05:54;;;;;;;6.60;2.17;;;5.10;99.70;;;;;;5071718;28;20474;-60
2021/12/07 14:08:21;;;;;;;3.93;1.90;;;4.90;99.70;;;;;;5058091;28;20946;-60
2021/12/07 14:10:52;;;;;;;7.43;2.10;;;4.90;99.70;;;;;;5064103;28;20467;-60
2021/12/07 14:13:21;;;;;;;4.87;2.10;;;4.80;99.70;;;;;;5070990;28;20447;-61
2021/12/07 14:15:50;;;;;;;5.43;2.00;;;4.90;99.70;;;;;;5066945;28;20443;-56
2021/12/07 14:18:22;;;;;;;4.67;2.00;;;4.70;99.70;;;;;;5058212;28;20534;-63
2021/12/07 14:20:52;;;;;;;6.87;2.10;;;4.60;99.70;;;;;;5052842;28;20471;-59
2021/12/07 14:23:22;;;;;;;5.90;2.20;;;4.70;99.70;;;;;;5061525;28;20537;-60
2021/12/07 14:25:55;;;;;;;6.80;2.00;;;4.70;99.70;;;;;;5058924;28;21005;-60
2021/12/07 14:28:31;;;;;;;8.20;2.20;;;4.70;99.70;;;;;;5070453;28;20447;-61
2021/12/07 14:31:01;;;;;;;3.40;2.00;;;4.90;99.70;;;;;;5071020;28;20499;-57
2021/12/07 14:33:28;;;;;;;7.80;1.97;;;4.90;99.70;;;;;;5071394;28;20451;-64
2021/12/07 14:35:55;;;;;;;3.33;1.60;;;4.80;99.70;;;;;;5056773;28;20443;-60
2021/12/07 14:38:22;;;;;;;7.90;1.87;;;4.70;99.70;;;;;;5051672;28;20443;-57
2021/12/07 14:40:48;;;;;;;7.53;1.90;;;4.70;99.70;;;;;;5056999;28;20537;-60
2021/12/07 14:43:18;;;;;;;9.10;1.90;;;4.60;99.70;;;;;;5054471;28;20447;-59
2021/12/07 14:45:45;;;;;;;4.47;1.70;;;4.30;99.70;;;;;;5064134;28;21179;-59
2021/12/07 14:48:13;;;;;;;5.93;1.90;;;4.10;99.70;;;;;;5061532;28;20450;-59
2021/12/07 14:50:39;;;;;;;5.40;1.97;;;4.00;99.70;;;;;;5069446;28;20471;-61
2021/12/07 14:53:06;;;;;;;5.03;1.80;;;3.80;99.70;;;;;;5064303;28;20449;-61
2021/12/07 14:55:37;;;;;;;5.10;2.10;;;3.70;99.70;;;;;;5066147;28;20442;-60
2021/12/07 14:58:05;;;;;;;7.13;2.30;;;3.60;99.70;;;;;;5069908;28;20473;-59
2021/12/07 15:00:32;;;;;;;6.53;3.10;;;3.50;99.70;;;;;;5071246;28;20467;-61
2021/12/07 15:02:58;;;;;;;8.93;3.10;;;3.60;99.70;;;;;;5071397;28;21456;-59
2021/12/07 15:05:32;;;;;;;8.87;3.50;;;3.50;99.70;;;;;;5065365;28;20479;-56
2021/12/07 15:07:58;;;;;;;13.93;3.90;;;3.50;99.70;;;;;;5062781;28;20449;-62
2021/12/07 15:10:25;;;;;;;13.60;4.33;;;3.30;99.70;;;;;;5063720;28;20516;-59
2021/12/07 15:12:53;;;;;;;14.23;4.27;;;3.30;99.70;;;;;;5057948;28;20586;-61
2021/12/07 15:15:21;;;;;;;14.73;3.87;;;3.20;99.70;;;;;;5059353;28;20446;-61
2021/12/07 15:17:48;;;;;;;33.80;4.97;;;3.10;99.70;;;;;;5061397;28;20808;-63
2021/12/07 15:20:15;;;;;;;33.17;5.60;;;3.00;99.70;;;;;;5070947;28;20483;-61
2021/12/07 15:22:44;;;;;;;16.60;4.17;;;3.00;99.70;;;;;;5070914;28;20493;-64
2021/12/07 15:25:14;;;;;;;15.47;4.00;;;2.90;99.70;;;;;;5070428;28;20482;-63
2021/12/07 15:27:49;;;;;;;13.00;4.10;;;2.90;99.70;;;;;;5071022;28;20541;-60
2021/12/07 15:30:17;;;;;;;18.30;4.73;;;2.80;99.70;;;;;;5071344;28;20470;-60
2021/12/07 15:32:44;;;;;;;22.57;3.93;;;2.80;99.70;;;;;;5064626;28;20436;-62
2021/12/07 15:35:21;;;;;;;10.37;4.30;;;2.70;99.70;;;;;;5050930;28;20447;-60
2021/12/07 15:37:49;;;;;;;17.70;4.13;;;2.70;99.70;;;;;;5052238;28;20466;-60
2021/12/07 15:40:16;;;;;;;45.60;6.87;;;2.60;99.70;;;;;;5051227;28;20808;-59
2021/12/07 15:42:42;;;;;;;34.00;6.73;;;2.60;99.70;;;;;;5051186;28;20443;-60
2021/12/07 15:45:11;;;;;;;27.53;5.77;;;2.60;99.70;;;;;;5050906;28;20496;-62
2021/12/07 15:47:41;;;;;;;13.37;4.50;;;2.60;99.70;;;;;;5060068;28;20450;-57
2021/12/07 15:50:11;;;;;;;11.63;4.10;;;2.60;99.70;;;;;;5072591;28;20474;-57
2021/12/07 15:52:42;;;;;;;9.53;4.20;;;2.50;99.70;;;;;;5065764;28;20462;-59
2021/12/07 15:55:13;;;;;;;13.70;5.57;;;2.40;99.70;;;;;;5069299;28;20450;-58
2021/12/07 15:57:42;;;;;;;11.60;3.93;;;2.30;99.70;;;;;;5066661;28;20435;-57
2021/12/07 16:00:11;;;;;;;10.87;3.60;;;2.40;99.70;;;;;;5066071;28;20463;-56
2021/12/07 16:02:38;;;;;;;8.23;3.93;;;2.40;99.70;;;;;;5073859;28;20450;-60
2021/12/07 16:05:10;;;;;;;8.30;3.63;;;2.40;99.70;;;;;;5072017;28;20474;-61
2021/12/07 16:07:43;;;;;;;8.80;3.43;;;2.30;99.70;;;;;;5066044;28;20447;-60
2021/12/07 16:10:14;;;;;;;10.80;5.20;;;2.30;99.70;;;;;;5063491;28;20903;-65
2021/12/07 16:12:41;;;;;;;10.07;5.13;;;2.40;99.70;;;;;;5062909;28;20463;-62
2021/12/07 16:15:13;;;;;;;16.97;6.70;;;2.50;99.70;;;;;;5068527;28;20447;-64
2021/12/07 16:17:41;;;;;;;21.10;7.37;;;2.70;99.70;;;;;;5064827;28;20518;-64
2021/12/07 16:20:10;;;;;;;20.30;7.77;;;2.80;99.70;;;;;;5069739;28;20482;-62
2021/12/07 16:22:38;;;;;;;18.27;8.60;;;2.70;99.70;;;;;;5060065;28;20443;-63
2021/12/07 16:25:05;;;;;;;14.03;5.90;;;2.70;99.70;;;;;;5062797;28;20555;-63
2021/12/07 16:27:34;;;;;;;12.33;5.53;;;2.90;99.70;;;;;;5072033;28;22624;-63
2021/12/07 16:30:01;;;;;;;19.20;5.87;;;3.00;99.70;;;;;;5068800;28;20475;-61
2021/12/07 16:32:29;;;;;;;15.37;6.30;;;3.10;99.70;;;;;;5069731;28;20446;-61
2021/12/07 16:34:56;;;;;;;13.97;5.77;;;3.10;99.70;;;;;;5065792;28;20461;-63
2021/12/07 16:37:23;;;;;;;16.17;5.00;;;3.10;99.70;;;;;;5066097;28;20950;-60
2021/12/07 16:39:51;;;;;;;11.57;5.63;;;3.20;99.70;;;;;;5060734;28;20550;-61
2021/12/07 16:42:20;;;;;;;11.23;4.93;;;3.30;99.70;;;;;;5062115;28;20454;-60
2021/12/07 16:44:49;;;;;;;23.63;8.80;;;3.20;99.70;;;;;;5061219;28;20453;-61
2021/12/07 16:47:16;;;;;;;18.27;7.03;;;3.20;99.70;;;;;;5059631;28;20946;-59
2021/12/07 16:49:43;;;;;;;22.03;8.27;;;3.20;99.70;;;;;;5058898;28;20468;-62
2021/12/07 16:52:10;;;;;;;18.87;7.57;;;3.20;99.70;;;;;;5058566;28;20551;-60
2021/12/07 16:54:38;;;;;;;17.50;7.03;;;3.20;99.70;;;;;;5068956;28;20474;-60
2021/12/07 16:57:06;;;;;;;21.00;7.17;;;3.20;99.70;;;;;;5068474;28;20482;-63
2021/12/07 16:59:35;;;;;;;19.30;6.70;;;3.30;99.70;;;;;;5071833;28;20446;-63
2021/12/07 17:02:04;;;;;;;13.30;6.23;;;3.20;99.70;;;;;;5056553;28;20439;-62
2021/12/07 17:04:31;;;;;;;19.50;7.87;;;3.20;99.70;;;;;;5060180;28;20471;-61
2021/12/07 17:06:57;;;;;;;36.53;12.30;;;3.20;99.70;;;;;;5068072;28;20485;-64
2021/12/07 17:09:27;;;;;;;24.03;8.27;;;3.10;99.70;;;;;;5071614;28;20439;-64
2021/12/07 17:11:54;;;;;;;16.13;7.40;;;3.00;99.70;;;;;;5071809;28;20474;-63
2021/12/07 17:14:21;;;;;;;23.57;9.60;;;3.00;99.70;;;;;;5059364;28;20942;-66
2021/12/07 17:16:48;;;;;;;17.07;7.60;;;3.00;99.70;;;;;;5067741;28;20446;-62
2021/12/07 17:19:16;;;;;;;21.40;7.60;;;2.90;99.70;;;;;;5072461;28;20969;-61
2021/12/07 17:21:43;;;;;;;21.07;8.20;;;2.80;99.70;;;;;;5066872;28;20470;-61
2021/12/07 17:24:10;;;;;;;24.37;9.47;;;2.80;99.70;;;;;;5068207;28;20451;-60
2021/12/07 17:26:37;;;;;;;21.10;9.50;;;2.70;99.70;;;;;;5063240;28;20506;-63
2021/12/07 17:29:04;;;;;;;25.77;10.03;;;2.60;99.70;;;;;;5067654;28;20862;-59
2021/12/07 17:31:30;;;;;;;25.00;9.93;;;2.60;99.70;;;;;;5061466;28;20464;-65
2021/12/07 17:33:57;;;;;;;26.53;11.53;;;2.70;99.70;;;;;;5058706;28;20467;-64
2021/12/07 17:36:25;;;;;;;24.80;11.50;;;2.70;99.70;;;;;;5061646;28;20509;-61
2021/12/07 17:38:55;;;;;;;21.70;9.07;;;2.60;99.70;;;;;;5063136;28;20837;-60
2021/12/07 17:41:22;;;;;;;20.50;9.53;;;2.50;99.70;;;;;;5063134;28;20491;-64
2021/12/07 17:43:50;;;;;;;18.43;8.20;;;2.40;99.70;;;;;;5063019;28;20454;-60
2021/12/07 17:46:18;;;;;;;17.27;8.63;;;2.40;99.70;;;;;;5065894;28;20486;-60
2021/12/07 17:48:45;;;;;;;16.57;7.37;;;2.50;99.70;;;;;;5067564;28;20461;-60
2021/12/07 17:51:12;;;;;;;14.43;7.10;;;2.50;99.70;;;;;;5065776;28;20458;-63
2021/12/07 17:53:40;;;;;;;13.97;7.03;;;2.40;99.70;;;;;;5062576;28;20447;-60
2021/12/07 17:56:07;;;;;;;32.73;9.77;;;2.40;99.70;;;;;;5060874;28;20835;-63
2021/12/07 17:58:33;;;;;;;27.93;11.37;;;2.30;99.70;;;;;;5061521;28;20802;-61
2021/12/07 18:01:00;;;;;;;30.70;11.40;;;2.20;99.70;;;;;;5062377;28;20477;-62
2021/12/07 18:03:27;;;;;;;36.50;14.60;;;2.30;99.70;;;;;;5057642;28;20459;-63
2021/12/07 18:05:57;;;;;;;34.50;13.83;;;2.20;99.70;;;;;;5057764;28;20541;-62
2021/12/07 18:08:25;;;;;;;33.60;12.07;;;2.20;99.70;;;;;;5062691;28;20443;-61
2021/12/07 18:10:53;;;;;;;27.60;11.60;;;2.20;99.70;;;;;;5061007;28;20474;-62
2021/12/07 18:13:20;;;;;;;25.43;11.20;;;2.30;99.70;;;;;;5058956;28;20460;-60
2021/12/07 18:15:48;;;;;;;20.40;9.93;;;2.20;99.70;;;;;;5070199;28;20470;-60
2021/12/07 18:18:15;;;;;;;19.70;9.23;;;2.20;99.70;;;;;;5070406;28;20446;-60
2021/12/07 18:20:43;;;;;;;23.63;11.87;;;2.20;99.70;;;;;;5064779;28;20856;-63
2021/12/07 18:23:12;;;;;;;23.07;10.40;;;2.20;99.70;;;;;;5062797;28;20452;-62
2021/12/07 18:25:41;;;;;;;19.97;9.80;;;2.20;99.70;;;;;;5063105;28;20986;-61
2021/12/07 18:28:11;;;;;;;18.13;9.27;;;2.10;99.70;;;;;;5071272;28;20522;-61